CYOW

Ottawa/Macdonald-Cartier International Airport

Airport
ICAO code
CYOW
IATA Code
YOW
Summary
ICAO Region
NAM
ICAO Territory
Location

Riverside South, Ontario,

Serving
Ottawa
Elevation
374 ft
Coordinates
45° 19' 17" N , 75° 40' 16" W
KCC
Metar
Observation
CYOW 091900Z 36005KT 350V060 15SM FEW050 FEW250 M01/M11 A3047 RMK SC1CI1 SC TR CI TR SLP326
Station
Ottawa Int'L. Ont.
Date/Time
2022-12-09 19:00:00
Wind direction
360°
Wind speed
05 kts
Lowest cloud amount
few clouds
Temperature
-1°C
Dew point
-11°C
Humidity
46%
Weather condition
n/a

Description

Ottawa/Macdonald-Cartier International Airport or Macdonald-Cartier International Airport, in Ottawa Ontario, Canada is located in Riverside South, 5.5 nm south of downtown Ottawa.

Climatology

Humid Continental climate (Köppen climate classification Dfb) - Variable weather patterns and a large seasonal temperature variance. Summers are often warm and humid with frequent thunderstorms and winters can be very cold with frequent snowfall and persistent snow cover.

Runways

Designator Length Width Surface Rops
4/22 1006 23 ASP Yes/Yes
7/25 2438 61 ASP Yes/Yes
14/32 3048 61 ASP Yes/Yes

SKYbrary Partners:

Safety knowledge contributed by: